Time;durP1;ratioP1;P1;durP2;ratioP2;P2;SDS_P1;SDS_P2;PMS_P1;PMS_P2;Temp;Humidity;BMP_temperature;BMP_pressure;BME280_temperature;BME280_humidity;BME280_pressure;Samples;Min_cycle;Max_cycle;Signal;HPM_P1;HPM_P2
2023/09/22 00:00:28;;;;;;;4.72;1.10;;;;;;;;;;4996272;28;20396;-75
2023/09/22 00:03:15;;;;;;;5.53;1.40;;;;;;;;;;4996328;28;20046;-76
2023/09/22 00:06:02;;;;;;;3.63;1.00;;;;;;;;;;4996030;28;20400;-77
2023/09/22 00:08:48;;;;;;;1.48;0.77;;;;;;;;;;4996434;28;20046;-77
2023/09/22 00:11:33;;;;;;;2.17;1.00;;;;;;;;;;4995945;28;20042;-77
2023/09/22 00:14:19;;;;;;;4.85;1.02;;;;;;;;;;4996267;28;20042;-77
2023/09/22 00:17:05;;;;;;;2.83;0.93;;;;;;;;;;4996281;28;20054;-76
2023/09/22 00:19:51;;;;;;;3.88;1.25;;;;;;;;;;4995661;28;20046;-77
2023/09/22 00:22:36;;;;;;;3.40;0.90;;;;;;;;;;4995786;28;20042;-76
2023/09/22 00:25:22;;;;;;;4.50;1.10;;;;;;;;;;4995830;28;20058;-76
2023/09/22 00:28:07;;;;;;;4.82;1.25;;;;;;;;;;4995894;28;20392;-76
2023/09/22 00:30:53;;;;;;;3.15;1.10;;;;;;;;;;4996081;28;20385;-76
2023/09/22 00:33:38;;;;;;;3.45;1.10;;;;;;;;;;5001063;28;20046;-76
2023/09/22 00:36:25;;;;;;;3.15;1.10;;;;;;;;;;4995397;28;20039;-75
2023/09/22 00:39:10;;;;;;;3.38;1.10;;;;;;;;;;5001274;28;20592;-75
2023/09/22 00:41:56;;;;;;;3.15;1.10;;;;;;;;;;4995792;28;20492;-76
2023/09/22 00:44:42;;;;;;;3.92;1.17;;;;;;;;;;4995858;28;20046;-75
2023/09/22 00:47:28;;;;;;;3.80;1.40;;;;;;;;;;4995324;28;20046;-76
2023/09/22 00:50:13;;;;;;;2.75;1.20;;;;;;;;;;4995347;28;20050;-77
2023/09/22 00:52:58;;;;;;;2.28;0.88;;;;;;;;;;4995577;28;20039;-76
2023/09/22 00:55:47;;;;;;;2.33;0.90;;;;;;;;;;4995545;28;20050;-76
2023/09/22 00:58:32;;;;;;;5.25;1.20;;;;;;;;;;5001051;28;20042;-76
2023/09/22 01:01:20;;;;;;;8.60;1.77;;;;;;;;;;4995182;28;20046;-75
2023/09/22 01:04:05;;;;;;;2.80;1.20;;;;;;;;;;4995215;28;20042;-77
2023/09/22 01:06:51;;;;;;;4.18;1.13;;;;;;;;;;5000528;28;20042;-77
2023/09/22 01:09:38;;;;;;;5.75;1.10;;;;;;;;;;5000626;28;20500;-76
2023/09/22 01:12:24;;;;;;;3.65;1.27;;;;;;;;;;5000562;28;20038;-77
2023/09/22 01:15:10;;;;;;;3.70;1.00;;;;;;;;;;4994893;28;20046;-76
2023/09/22 01:17:56;;;;;;;6.78;1.08;;;;;;;;;;5000746;28;20472;-76
2023/09/22 01:20:43;;;;;;;3.75;1.00;;;;;;;;;;4994555;28;20047;-76
2023/09/22 01:23:28;;;;;;;4.32;1.15;;;;;;;;;;4995832;28;20496;-77
2023/09/22 01:26:14;;;;;;;3.40;1.30;;;;;;;;;;4995009;28;20469;-77
2023/09/22 01:28:59;;;;;;;4.13;1.58;;;;;;;;;;5001178;28;20046;-77
2023/09/22 01:31:45;;;;;;;4.65;1.10;;;;;;;;;;4994617;28;20054;-77
2023/09/22 01:34:30;;;;;;;4.80;1.02;;;;;;;;;;5000240;28;20392;-77
2023/09/22 01:37:17;;;;;;;6.28;1.33;;;;;;;;;;5000148;28;20042;-75
2023/09/22 01:40:03;;;;;;;3.75;1.00;;;;;;;;;;4994660;28;20042;-76
2023/09/22 01:42:49;;;;;;;2.78;1.00;;;;;;;;;;5000085;28;20058;-76
2023/09/22 01:45:34;;;;;;;2.65;1.00;;;;;;;;;;5001143;28;20042;-76
2023/09/22 01:48:19;;;;;;;3.55;1.10;;;;;;;;;;4999586;28;20046;-76
2023/09/22 01:51:05;;;;;;;3.45;1.08;;;;;;;;;;4994276;28;20050;-75
2023/09/22 01:53:50;;;;;;;4.22;1.00;;;;;;;;;;4994420;28;20046;-75
2023/09/22 01:56:36;;;;;;;2.70;0.80;;;;;;;;;;5001165;28;20492;-76
2023/09/22 01:59:22;;;;;;;3.90;1.40;;;;;;;;;;5000260;28;20046;-76
2023/09/22 02:02:07;;;;;;;5.70;1.17;;;;;;;;;;5000629;28;20038;-76
2023/09/22 02:04:53;;;;;;;3.42;1.08;;;;;;;;;;4994308;28;20043;-75
2023/09/22 02:07:38;;;;;;;3.35;1.25;;;;;;;;;;4994235;28;20050;-76
2023/09/22 02:10:24;;;;;;;4.95;1.20;;;;;;;;;;4999876;28;20480;-74
2023/09/22 02:13:10;;;;;;;4.63;1.20;;;;;;;;;;4994390;28;20042;-76
2023/09/22 02:15:55;;;;;;;4.88;1.05;;;;;;;;;;4994729;28;20396;-77
2023/09/22 02:18:41;;;;;;;4.07;1.00;;;;;;;;;;4994187;28;20050;-76
2023/09/22 02:21:29;;;;;;;5.95;1.40;;;;;;;;;;4994534;28;20043;-76
2023/09/22 02:24:14;;;;;;;7.13;1.42;;;;;;;;;;4992932;28;20058;-75
2023/09/22 02:27:00;;;;;;;4.22;1.30;;;;;;;;;;4994410;28;20050;-75
2023/09/22 02:29:45;;;;;;;3.47;1.30;;;;;;;;;;5000965;28;20054;-76
2023/09/22 02:32:30;;;;;;;3.50;1.40;;;;;;;;;;4993730;28;20428;-75
2023/09/22 02:35:22;;;;;;;8.95;1.77;;;;;;;;;;4999552;28;20054;-77
2023/09/22 02:38:08;;;;;;;4.95;1.70;;;;;;;;;;4999762;28;20046;-76
2023/09/22 02:40:53;;;;;;;10.13;1.77;;;;;;;;;;4993780;28;20050;-76
2023/09/22 02:43:39;;;;;;;8.30;1.90;;;;;;;;;;4999624;28;20042;-76
2023/09/22 02:46:24;;;;;;;4.70;1.52;;;;;;;;;;4999504;28;20046;-77
2023/09/22 02:49:09;;;;;;;6.72;1.50;;;;;;;;;;4993378;28;20050;-76
2023/09/22 02:51:56;;;;;;;6.70;1.50;;;;;;;;;;4994012;28;20207;-76
2023/09/22 02:54:41;;;;;;;5.60;1.65;;;;;;;;;;4994059;28;20042;-77
2023/09/22 02:57:27;;;;;;;5.00;1.40;;;;;;;;;;4994588;28;20464;-76
2023/09/22 03:00:17;;;;;;;3.80;1.40;;;;;;;;;;4997365;28;20042;-78
2023/09/22 03:03:03;;;;;;;7.03;1.50;;;;;;;;;;5003487;28;20392;-77
2023/09/22 03:05:49;;;;;;;2.33;1.20;;;;;;;;;;4997514;28;20054;-77
2023/09/22 03:08:35;;;;;;;2.58;1.20;;;;;;;;;;5003063;28;20046;-76
2023/09/22 03:11:21;;;;;;;8.45;2.17;;;;;;;;;;4997989;28;20046;-75
2023/09/22 03:14:06;;;;;;;6.88;1.38;;;;;;;;;;5002689;28;20484;-77
2023/09/22 03:16:53;;;;;;;5.10;1.40;;;;;;;;;;5002797;28;20492;-76
2023/09/22 03:19:38;;;;;;;8.23;1.52;;;;;;;;;;5003348;28;20042;-76
2023/09/22 03:22:25;;;;;;;3.85;1.27;;;;;;;;;;4996711;28;20054;-76
2023/09/22 03:25:11;;;;;;;5.80;1.50;;;;;;;;;;5002741;28;20038;-76
2023/09/22 03:27:58;;;;;;;3.58;1.30;;;;;;;;;;5002371;28;20038;-77
2023/09/22 03:30:44;;;;;;;5.13;1.40;;;;;;;;;;5002404;28;20512;-77
2023/09/22 03:33:29;;;;;;;4.30;1.27;;;;;;;;;;5002604;28;20046;-77
2023/09/22 03:36:15;;;;;;;3.10;1.50;;;;;;;;;;4997003;28;20038;-77
2023/09/22 03:39:02;;;;;;;3.25;1.52;;;;;;;;;;5002499;28;20384;-75
2023/09/22 03:41:52;;;;;;;4.22;1.60;;;;;;;;;;5003076;28;20391;-76
2023/09/22 03:44:37;;;;;;;4.13;1.20;;;;;;;;;;4996606;28;20058;-76
2023/09/22 03:47:22;;;;;;;3.45;1.48;;;;;;;;;;5002142;28;20046;-76
2023/09/22 03:50:09;;;;;;;6.78;1.30;;;;;;;;;;4996424;28;20046;-76
2023/09/22 03:52:55;;;;;;;3.80;1.23;;;;;;;;;;5002370;28;20042;-76
2023/09/22 03:55:40;;;;;;;7.45;1.65;;;;;;;;;;5001925;28;20051;-76
2023/09/22 03:58:26;;;;;;;6.15;1.30;;;;;;;;;;5002033;28;20050;-76
2023/09/22 04:01:10;;;;;;;4.32;1.33;;;;;;;;;;4996065;28;20042;-78
2023/09/22 04:03:56;;;;;;;5.30;1.30;;;;;;;;;;5001763;28;20054;-77
2023/09/22 04:06:42;;;;;;;7.93;1.48;;;;;;;;;;5001983;28;20042;-76
2023/09/22 04:09:28;;;;;;;5.85;1.20;;;;;;;;;;4995582;28;20039;-75
2023/09/22 04:12:14;;;;;;;7.65;1.30;;;;;;;;;;5001494;28;20503;-76
2023/09/22 04:14:59;;;;;;;6.43;1.30;;;;;;;;;;4995752;28;20046;-76
2023/09/22 04:17:46;;;;;;;5.55;1.42;;;;;;;;;;4995532;28;20054;-77
2023/09/22 04:20:35;;;;;;;5.68;1.90;;;;;;;;;;4995484;28;20051;-76
2023/09/22 04:23:20;;;;;;;4.75;1.35;;;;;;;;;;4995560;28;20046;-76
2023/09/22 04:26:09;;;;;;;4.45;1.50;;;;;;;;;;4995838;28;20046;-76
2023/09/22 04:28:59;;;;;;;8.75;1.60;;;;;;;;;;4995393;28;20046;-75
2023/09/22 04:31:44;;;;;;;6.35;1.80;;;;;;;;;;4995546;28;20046;-76
2023/09/22 04:34:29;;;;;;;4.25;1.27;;;;;;;;;;5002729;28;20042;-76
2023/09/22 04:37:15;;;;;;;9.55;1.60;;;;;;;;;;4995545;28;20050;-77
2023/09/22 04:40:03;;;;;;;8.70;1.70;;;;;;;;;;4995628;28;20109;-76
2023/09/22 04:42:51;;;;;;;7.60;1.77;;;;;;;;;;4995561;28;20050;-76
2023/09/22 04:45:40;;;;;;;7.85;1.58;;;;;;;;;;4995547;28;20042;-77
2023/09/22 04:48:25;;;;;;;5.45;1.60;;;;;;;;;;4995428;28;20054;-77
2023/09/22 04:51:11;;;;;;;6.47;1.50;;;;;;;;;;4995514;28;20058;-77
2023/09/22 04:53:56;;;;;;;7.03;1.67;;;;;;;;;;4995584;28;20050;-77
2023/09/22 04:56:43;;;;;;;6.68;1.63;;;;;;;;;;4995166;28;20491;-76
2023/09/22 04:59:28;;;;;;;8.80;1.67;;;;;;;;;;4995063;28;20051;-77
2023/09/22 05:02:13;;;;;;;4.82;1.50;;;;;;;;;;4995311;28;20050;-77
2023/09/22 05:05:01;;;;;;;4.68;1.70;;;;;;;;;;4995046;28;20046;-77
2023/09/22 05:07:46;;;;;;;8.93;1.83;;;;;;;;;;4994976;28;20042;-77
2023/09/22 05:10:32;;;;;;;3.85;1.60;;;;;;;;;;4995287;28;20046;-77
2023/09/22 05:13:18;;;;;;;5.68;1.90;;;;;;;;;;4994774;28;20046;-77
2023/09/22 05:16:09;;;;;;;4.70;1.70;;;;;;;;;;5001531;28;20042;-76
2023/09/22 05:18:56;;;;;;;7.97;2.08;;;;;;;;;;4994856;28;20042;-76
2023/09/22 05:21:41;;;;;;;3.22;1.30;;;;;;;;;;4993840;28;20057;-77
2023/09/22 05:24:27;;;;;;;6.57;1.48;;;;;;;;;;4994599;28;20050;-76
2023/09/22 05:27:11;;;;;;;5.45;1.60;;;;;;;;;;4994379;28;20047;-76
2023/09/22 05:29:57;;;;;;;7.22;1.50;;;;;;;;;;5000496;28;20051;-77
2023/09/22 05:32:43;;;;;;;8.00;1.90;;;;;;;;;;4994770;28;20050;-76
2023/09/22 05:35:28;;;;;;;7.90;1.70;;;;;;;;;;4999787;28;20046;-76
2023/09/22 05:38:14;;;;;;;4.93;1.67;;;;;;;;;;5001313;28;20046;-77
2023/09/22 05:40:59;;;;;;;5.20;1.73;;;;;;;;;;4993897;28;20042;-76
2023/09/22 05:43:45;;;;;;;5.82;1.45;;;;;;;;;;4994634;28;20058;-76
2023/09/22 05:46:31;;;;;;;4.30;1.70;;;;;;;;;;4994481;28;20492;-78
2023/09/22 05:49:16;;;;;;;20.10;5.97;;;;;;;;;;5001218;28;20042;-77
2023/09/22 05:52:03;;;;;;;7.97;2.80;;;;;;;;;;4994495;28;20050;-76
2023/09/22 05:54:50;;;;;;;7.07;2.50;;;;;;;;;;5000921;28;20049;-76
2023/09/22 05:57:35;;;;;;;10.07;2.38;;;;;;;;;;4994298;28;20050;-76
2023/09/22 06:00:26;;;;;;;8.27;2.63;;;;;;;;;;4999589;28;20042;-75
2023/09/22 06:03:12;;;;;;;5.65;2.13;;;;;;;;;;5000635;28;20058;-77
2023/09/22 06:05:57;;;;;;;6.38;2.55;;;;;;;;;;4994175;28;20054;-76
2023/09/22 06:08:45;;;;;;;6.78;1.67;;;;;;;;;;4994119;28;20042;-76
2023/09/22 06:11:30;;;;;;;7.63;1.80;;;;;;;;;;4994285;28;20046;-77
2023/09/22 06:14:15;;;;;;;6.85;1.95;;;;;;;;;;4994437;28;20481;-77
2023/09/22 06:17:01;;;;;;;9.63;2.33;;;;;;;;;;4994091;28;20392;-76
2023/09/22 06:19:46;;;;;;;9.77;5.40;;;;;;;;;;4994410;28;20046;-76
2023/09/22 06:22:32;;;;;;;9.68;3.45;;;;;;;;;;4993838;28;20038;-75
2023/09/22 06:25:18;;;;;;;9.23;3.22;;;;;;;;;;4994216;28;20042;-75
2023/09/22 06:28:05;;;;;;;12.93;3.47;;;;;;;;;;4993754;28;20480;-76
2023/09/22 06:30:52;;;;;;;13.10;5.38;;;;;;;;;;4993852;28;20054;-76
2023/09/22 06:33:37;;;;;;;5.85;2.47;;;;;;;;;;4996247;28;20046;-76
2023/09/22 06:36:23;;;;;;;8.00;2.15;;;;;;;;;;4997779;28;20046;-74
2023/09/22 06:39:09;;;;;;;4.95;1.70;;;;;;;;;;4998317;28;20046;-75
2023/09/22 06:41:54;;;;;;;6.50;1.88;;;;;;;;;;4997740;28;20047;-76
2023/09/22 06:44:40;;;;;;;27.63;11.80;;;;;;;;;;4997633;28;20050;-76
2023/09/22 06:47:25;;;;;;;7.15;2.22;;;;;;;;;;4998149;28;20050;-77
2023/09/22 06:50:12;;;;;;;7.35;2.47;;;;;;;;;;4997455;28;20046;-75
2023/09/22 06:52:58;;;;;;;7.60;2.40;;;;;;;;;;4997963;28;20042;-79
2023/09/22 06:55:44;;;;;;;10.30;2.67;;;;;;;;;;4997743;28;20042;-78
2023/09/22 06:58:29;;;;;;;6.10;2.40;;;;;;;;;;4997315;28;20038;-77
2023/09/22 07:01:14;;;;;;;9.68;2.50;;;;;;;;;;4997406;28;20392;-75
2023/09/22 07:04:00;;;;;;;11.50;3.95;;;;;;;;;;4997268;28;20050;-75
2023/09/22 07:06:45;;;;;;;13.50;5.60;;;;;;;;;;5003697;28;20051;-73
2023/09/22 07:09:31;;;;;;;9.93;3.03;;;;;;;;;;5002975;28;20404;-75
2023/09/22 07:12:17;;;;;;;14.93;3.03;;;;;;;;;;4997156;28;20046;-75
2023/09/22 07:15:03;;;;;;;7.93;2.45;;;;;;;;;;5002774;28;20038;-75
2023/09/22 07:17:48;;;;;;;11.23;2.95;;;;;;;;;;5003392;28;20480;-74
2023/09/22 07:20:33;;;;;;;5.70;2.30;;;;;;;;;;4996911;28;20046;-78
2023/09/22 07:23:21;;;;;;;10.50;3.33;;;;;;;;;;4997261;28;20046;-76
2023/09/22 07:26:11;;;;;;;13.98;6.20;;;;;;;;;;4996877;28;20042;-76
2023/09/22 07:28:58;;;;;;;12.40;2.78;;;;;;;;;;4997024;28;20047;-76
2023/09/22 07:31:44;;;;;;;10.85;3.05;;;;;;;;;;4997024;28;20042;-76
2023/09/22 07:34:29;;;;;;;8.85;2.13;;;;;;;;;;4996943;28;20046;-76
2023/09/22 07:37:18;;;;;;;8.65;3.67;;;;;;;;;;4997013;28;20046;-76
2023/09/22 07:40:08;;;;;;;8.52;2.42;;;;;;;;;;5002962;28;20042;-76
2023/09/22 07:42:54;;;;;;;7.53;2.42;;;;;;;;;;5003011;28;20038;-76
2023/09/22 07:45:40;;;;;;;7.18;2.20;;;;;;;;;;5002097;28;20050;-76
2023/09/22 07:48:27;;;;;;;8.85;2.55;;;;;;;;;;5003092;28;20043;-77
2023/09/22 07:51:12;;;;;;;10.00;2.45;;;;;;;;;;5002962;28;20046;-76
2023/09/22 07:53:57;;;;;;;7.07;2.35;;;;;;;;;;4996489;28;20507;-76
2023/09/22 07:56:42;;;;;;;14.00;3.38;;;;;;;;;;4996046;28;20039;-76
2023/09/22 07:59:31;;;;;;;7.65;2.65;;;;;;;;;;5002717;28;20050;-76
2023/09/22 08:02:17;;;;;;;10.32;2.75;;;;;;;;;;4996058;28;20042;-76
2023/09/22 08:05:02;;;;;;;9.30;2.22;;;;;;;;;;5002844;28;20038;-76
2023/09/22 08:07:52;;;;;;;9.13;2.80;;;;;;;;;;4996137;28;20050;-75
2023/09/22 08:10:38;;;;;;;9.15;2.60;;;;;;;;;;4996299;28;20388;-76
2023/09/22 08:13:24;;;;;;;13.85;3.33;;;;;;;;;;4996027;28;20050;-76
2023/09/22 08:16:10;;;;;;;8.38;2.60;;;;;;;;;;4995733;28;20042;-75
2023/09/22 08:18:56;;;;;;;7.95;2.63;;;;;;;;;;4995963;28;20046;-78
2023/09/22 08:21:41;;;;;;;8.15;2.75;;;;;;;;;;4995539;28;20483;-76
2023/09/22 08:24:28;;;;;;;10.20;2.50;;;;;;;;;;4996088;28;20483;-76
2023/09/22 08:27:14;;;;;;;9.90;2.97;;;;;;;;;;4995406;28;20042;-76
2023/09/22 08:30:02;;;;;;;7.97;2.63;;;;;;;;;;4995508;28;20047;-75
2023/09/22 08:32:47;;;;;;;9.35;2.72;;;;;;;;;;5002023;28;20054;-76
2023/09/22 08:35:33;;;;;;;11.98;3.75;;;;;;;;;;4995443;28;20038;-78
2023/09/22 08:38:19;;;;;;;11.23;3.10;;;;;;;;;;5002049;28;20054;-75
2023/09/22 08:41:05;;;;;;;10.80;2.97;;;;;;;;;;4995646;28;20046;-74
2023/09/22 08:43:50;;;;;;;12.63;3.60;;;;;;;;;;4996027;28;20046;-75
2023/09/22 08:46:35;;;;;;;9.23;3.08;;;;;;;;;;5002313;28;20046;-75
2023/09/22 08:49:23;;;;;;;8.95;2.75;;;;;;;;;;4997025;28;20042;-77
2023/09/22 08:52:09;;;;;;;9.95;3.10;;;;;;;;;;5002010;28;20054;-74
2023/09/22 08:54:54;;;;;;;8.60;2.70;;;;;;;;;;4995130;28;20047;-76
2023/09/22 08:57:44;;;;;;;13.57;3.58;;;;;;;;;;4995030;28;20508;-75
2023/09/22 09:00:30;;;;;;;7.65;2.88;;;;;;;;;;5001634;28;20038;-76
2023/09/22 09:03:18;;;;;;;11.05;3.22;;;;;;;;;;4995006;28;20050;-75
2023/09/22 09:06:09;;;;;;;14.80;3.42;;;;;;;;;;4995286;28;20384;-75
2023/09/22 09:09:04;;;;;;;15.60;3.42;;;;;;;;;;4995919;28;20050;-75
2023/09/22 09:12:00;;;;;;;9.82;2.75;;;;;;;;;;4997571;28;20503;-78
2023/09/22 09:14:47;;;;;;;11.60;3.80;;;;;;;;;;4997625;28;20485;-77
2023/09/22 09:17:32;;;;;;;9.98;3.25;;;;;;;;;;4998173;28;20046;-77
2023/09/22 09:20:18;;;;;;;20.80;3.75;;;;;;;;;;5004708;28;20050;-78
2023/09/22 09:23:21;;;;;;;9.80;3.10;;;;;;;;;;5001186;28;20468;-81
2023/09/22 09:26:06;;;;;;;16.42;3.53;;;;;;;;;;5004147;28;20050;-77
2023/09/22 09:28:53;;;;;;;10.75;2.95;;;;;;;;;;5002814;28;20054;-80
2023/09/22 09:31:46;;;;;;;12.60;3.20;;;;;;;;;;4994999;28;20496;-81
2023/09/22 09:34:39;;;;;;;11.93;3.85;;;;;;;;;;4994734;28;20042;-78
2023/09/22 09:37:26;;;;;;;9.15;3.17;;;;;;;;;;5001347;28;20440;-77
2023/09/22 09:40:12;;;;;;;11.05;3.15;;;;;;;;;;4994419;28;20046;-84
2023/09/22 09:42:59;;;;;;;13.40;3.25;;;;;;;;;;5005154;28;20034;-77
2023/09/22 09:45:48;;;;;;;11.10;3.80;;;;;;;;;;5000958;28;20504;-74
2023/09/22 09:48:39;;;;;;;11.90;3.42;;;;;;;;;;4994616;28;20046;-75
2023/09/22 09:51:26;;;;;;;16.00;3.70;;;;;;;;;;4994324;28;20039;-76
2023/09/22 09:54:13;;;;;;;15.00;3.47;;;;;;;;;;4994196;28;20050;-76
2023/09/22 09:56:59;;;;;;;18.15;5.53;;;;;;;;;;4994250;28;20046;-76
2023/09/22 09:59:45;;;;;;;17.88;4.10;;;;;;;;;;4994366;28;20046;-77
2023/09/22 10:02:31;;;;;;;16.75;3.70;;;;;;;;;;4993859;28;20047;-77
2023/09/22 10:05:19;;;;;;;16.33;4.28;;;;;;;;;;4994182;28;20046;-75
2023/09/22 10:08:06;;;;;;;15.85;4.18;;;;;;;;;;4995344;28;20039;-75
2023/09/22 10:10:54;;;;;;;14.95;4.00;;;;;;;;;;4998531;28;20042;-76
2023/09/22 10:13:40;;;;;;;18.60;4.50;;;;;;;;;;5004691;28;20042;-75
2023/09/22 10:16:29;;;;;;;19.00;4.70;;;;;;;;;;4997991;28;20042;-76
2023/09/22 10:19:15;;;;;;;11.50;3.88;;;;;;;;;;4998060;28;20046;-78
2023/09/22 10:22:13;;;;;;;16.02;3.95;;;;;;;;;;4997570;28;20034;-77
2023/09/22 10:25:27;;;;;;;18.60;3.83;;;;;;;;;;4998095;28;20062;-77
2023/09/22 10:28:25;;;;;;;;;;;;;;;;;;4994247;28;20038;-77
2023/09/22 10:31:11;;;;;;;14.93;3.70;;;;;;;;;;4997999;28;19914;-77
2023/09/22 10:33:56;;;;;;;13.60;3.53;;;;;;;;;;4997867;28;20050;-77
2023/09/22 10:36:46;;;;;;;13.50;4.18;;;;;;;;;;5004699;28;20400;-75
2023/09/22 10:39:49;;;;;;;13.15;3.72;;;;;;;;;;5004432;28;20476;-77
2023/09/22 10:42:41;;;;;;;14.10;3.35;;;;;;;;;;5003731;28;20042;-75
2023/09/22 10:45:28;;;;;;;13.55;3.60;;;;;;;;;;5004240;28;20046;-74
2023/09/22 10:48:14;;;;;;;13.43;3.40;;;;;;;;;;5004247;28;20046;-75
2023/09/22 10:51:02;;;;;;;19.95;4.30;;;;;;;;;;4997620;28;20047;-75
2023/09/22 10:54:00;;;;;;;14.07;3.78;;;;;;;;;;4998192;28;20046;-77
2023/09/22 10:56:46;;;;;;;13.60;3.92;;;;;;;;;;5004073;28;20050;-76
2023/09/22 10:59:35;;;;;;;18.63;3.75;;;;;;;;;;4997632;28;20042;-77
2023/09/22 11:02:25;;;;;;;15.55;3.90;;;;;;;;;;5003523;28;20046;-74
2023/09/22 11:05:13;;;;;;;17.00;3.83;;;;;;;;;;5003724;28;20404;-75
2023/09/22 11:07:58;;;;;;;16.85;3.90;;;;;;;;;;4997409;28;20479;-75
2023/09/22 11:10:49;;;;;;;21.98;4.30;;;;;;;;;;4997079;28;20047;-74
2023/09/22 11:13:35;;;;;;;18.75;4.07;;;;;;;;;;4997303;28;20034;-75
2023/09/22 11:16:21;;;;;;;15.07;4.20;;;;;;;;;;4996960;28;20046;-76
2023/09/22 11:19:11;;;;;;;15.13;4.40;;;;;;;;;;4996959;28;20433;-77
2023/09/22 11:21:59;;;;;;;13.10;3.83;;;;;;;;;;4997145;28;20046;-76
2023/09/22 11:24:47;;;;;;;20.02;4.25;;;;;;;;;;4996943;28;20042;-77
2023/09/22 11:27:33;;;;;;;18.13;4.55;;;;;;;;;;4997083;28;20400;-75
2023/09/22 11:30:25;;;;;;;16.63;4.18;;;;;;;;;;4996708;28;20047;-77
2023/09/22 11:33:15;;;;;;;14.52;3.97;;;;;;;;;;4996873;28;20034;-78
2023/09/22 11:36:00;;;;;;;14.25;3.60;;;;;;;;;;5003437;28;20053;-77
2023/09/22 11:38:55;;;;;;;25.77;4.47;;;;;;;;;;4996620;28;20050;-75
2023/09/22 11:41:40;;;;;;;20.45;4.38;;;;;;;;;;4996730;28;20050;-76
2023/09/22 11:44:26;;;;;;;17.15;3.63;;;;;;;;;;4996442;28;20046;-77
2023/09/22 11:47:21;;;;;;;18.27;3.85;;;;;;;;;;4996821;28;20038;-76
2023/09/22 11:50:07;;;;;;;23.05;4.75;;;;;;;;;;5003072;28;20042;-75
2023/09/22 11:53:08;;;;;;;22.13;4.07;;;;;;;;;;4996193;28;20042;-75
2023/09/22 11:55:53;;;;;;;18.40;3.92;;;;;;;;;;4996763;28;20043;-75
2023/09/22 11:58:38;;;;;;;14.57;4.38;;;;;;;;;;4996460;28;20492;-76
2023/09/22 12:01:23;;;;;;;15.38;4.20;;;;;;;;;;4996211;28;20388;-75
2023/09/22 12:04:10;;;;;;;14.25;4.13;;;;;;;;;;4995334;28;20392;-75
2023/09/22 12:06:56;;;;;;;14.43;3.80;;;;;;;;;;4996082;28;20042;-75
2023/09/22 12:09:41;;;;;;;17.50;3.75;;;;;;;;;;4996133;28;20042;-77
2023/09/22 12:12:26;;;;;;;14.45;3.90;;;;;;;;;;4996138;28;20491;-75
2023/09/22 12:15:12;;;;;;;18.05;4.07;;;;;;;;;;5002765;28;20046;-75
2023/09/22 12:17:58;;;;;;;16.30;3.75;;;;;;;;;;4995983;28;20058;-75
2023/09/22 12:20:43;;;;;;;22.88;4.20;;;;;;;;;;4995172;28;20042;-77
2023/09/22 12:23:29;;;;;;;13.00;3.42;;;;;;;;;;4997632;28;20055;-77
2023/09/22 12:26:14;;;;;;;13.10;3.90;;;;;;;;;;4995409;28;20043;-76
2023/09/22 12:29:03;;;;;;;18.13;4.20;;;;;;;;;;5001773;28;20046;-76
2023/09/22 12:31:49;;;;;;;17.20;3.75;;;;;;;;;;4999938;28;20054;-75
2023/09/22 12:34:34;;;;;;;33.35;4.55;;;;;;;;;;4993973;28;20042;-75
2023/09/22 12:37:20;;;;;;;21.65;4.68;;;;;;;;;;4993941;28;20050;-77
2023/09/22 12:40:06;;;;;;;21.48;4.65;;;;;;;;;;4995569;28;20046;-76
2023/09/22 12:42:52;;;;;;;15.35;4.00;;;;;;;;;;4994940;28;20047;-75
2023/09/22 12:45:39;;;;;;;14.65;3.78;;;;;;;;;;4994717;28;20046;-77
2023/09/22 12:48:24;;;;;;;16.67;3.83;;;;;;;;;;5001650;28;20042;-73
2023/09/22 12:51:12;;;;;;;15.32;3.78;;;;;;;;;;4994193;28;20050;-75
2023/09/22 12:53:57;;;;;;;19.98;4.13;;;;;;;;;;5000865;28;20050;-76
2023/09/22 12:56:44;;;;;;;18.98;4.70;;;;;;;;;;4995004;28;20042;-75
2023/09/22 12:59:30;;;;;;;21.23;4.40;;;;;;;;;;4994000;28;20050;-76
2023/09/22 13:02:16;;;;;;;17.40;4.45;;;;;;;;;;4994574;28;20038;-74
2023/09/22 13:05:03;;;;;;;16.02;4.45;;;;;;;;;;5002058;28;20042;-74
2023/09/22 13:07:48;;;;;;;14.38;3.75;;;;;;;;;;4994925;28;20038;-75
2023/09/22 13:10:43;;;;;;;22.35;3.83;;;;;;;;;;4994906;28;20046;-75
2023/09/22 13:13:28;;;;;;;19.38;4.05;;;;;;;;;;4995048;28;20038;-74
2023/09/22 13:16:14;;;;;;;20.92;4.28;;;;;;;;;;4994719;28;20042;-74
2023/09/22 13:18:59;;;;;;;21.05;4.50;;;;;;;;;;4994978;28;20050;-75
2023/09/22 13:21:49;;;;;;;19.13;4.07;;;;;;;;;;5001171;28;20042;-74
2023/09/22 13:24:33;;;;;;;18.23;4.45;;;;;;;;;;5001080;28;20054;-74
2023/09/22 13:27:18;;;;;;;14.40;3.85;;;;;;;;;;4994674;28;20404;-75
2023/09/22 13:30:05;;;;;;;22.90;4.65;;;;;;;;;;4994414;28;20046;-75
2023/09/22 13:32:50;;;;;;;27.08;4.63;;;;;;;;;;5001366;28;20046;-75
2023/09/22 13:35:35;;;;;;;16.05;4.68;;;;;;;;;;4994498;28;20042;-75
2023/09/22 13:38:20;;;;;;;19.00;4.40;;;;;;;;;;4994907;28;20392;-75
2023/09/22 13:41:13;;;;;;;21.52;4.60;;;;;;;;;;4994337;28;20042;-75
2023/09/22 13:43:58;;;;;;;21.35;4.43;;;;;;;;;;5000188;28;20396;-76
2023/09/22 13:46:45;;;;;;;17.55;4.22;;;;;;;;;;4993510;28;20054;-77
2023/09/22 13:49:31;;;;;;;18.58;4.65;;;;;;;;;;4994394;28;20034;-75
2023/09/22 13:52:16;;;;;;;16.40;3.92;;;;;;;;;;4994495;28;20396;-75
2023/09/22 13:55:04;;;;;;;25.45;5.00;;;;;;;;;;5001102;28;20384;-75
2023/09/22 13:57:49;;;;;;;22.52;4.85;;;;;;;;;;4994313;28;20042;-74
2023/09/22 14:00:34;;;;;;;17.48;4.43;;;;;;;;;;4994163;28;20046;-75
2023/09/22 14:03:22;;;;;;;19.58;4.10;;;;;;;;;;4992992;28;20046;-75
2023/09/22 14:06:15;;;;;;;29.70;4.78;;;;;;;;;;4993333;28;20408;-75
2023/09/22 14:09:00;;;;;;;22.23;6.35;;;;;;;;;;4993997;28;20042;-75
2023/09/22 14:11:47;;;;;;;23.08;6.38;;;;;;;;;;4994188;28;20424;-75
2023/09/22 14:14:32;;;;;;;21.33;4.80;;;;;;;;;;4994080;28;20046;-75
2023/09/22 14:17:19;;;;;;;22.25;4.80;;;;;;;;;;4994072;28;20046;-75
2023/09/22 14:20:06;;;;;;;25.25;6.18;;;;;;;;;;5000472;28;20046;-75
2023/09/22 14:22:51;;;;;;;28.38;6.30;;;;;;;;;;4997682;28;20042;-76
2023/09/22 14:25:37;;;;;;;26.30;5.10;;;;;;;;;;4993905;28;20046;-75
2023/09/22 14:28:22;;;;;;;24.98;4.50;;;;;;;;;;4993974;28;20047;-74
2023/09/22 14:31:13;;;;;;;21.20;6.13;;;;;;;;;;4993927;28;20043;-75
2023/09/22 14:33:59;;;;;;;33.75;10.70;;;;;;;;;;4993730;28;20038;-76
2023/09/22 14:36:44;;;;;;;17.70;5.03;;;;;;;;;;4994194;28;20385;-76
2023/09/22 14:39:29;;;;;;;30.13;8.80;;;;;;;;;;4993991;28;20058;-76
2023/09/22 14:42:15;;;;;;;30.63;7.65;;;;;;;;;;4993165;28;20072;-76
2023/09/22 14:45:00;;;;;;;26.20;7.07;;;;;;;;;;4993763;28;20039;-76
2023/09/22 14:47:45;;;;;;;26.65;6.72;;;;;;;;;;5000320;28;20039;-75
2023/09/22 14:50:32;;;;;;;30.17;7.57;;;;;;;;;;4994083;28;20472;-76
2023/09/22 14:53:18;;;;;;;31.75;6.88;;;;;;;;;;4994293;28;20050;-75
2023/09/22 14:56:03;;;;;;;20.88;6.43;;;;;;;;;;5004097;28;20046;-75
2023/09/22 14:58:48;;;;;;;32.05;7.68;;;;;;;;;;4997432;28;20400;-76
2023/09/22 15:01:34;;;;;;;18.40;4.45;;;;;;;;;;4997339;28;20042;-75
2023/09/22 15:04:19;;;;;;;18.90;5.90;;;;;;;;;;5002768;28;20046;-75
2023/09/22 15:07:04;;;;;;;33.45;10.00;;;;;;;;;;4997028;28;20042;-76
2023/09/22 15:09:50;;;;;;;19.17;6.72;;;;;;;;;;4997134;28;20054;-75
2023/09/22 15:12:35;;;;;;;24.00;6.50;;;;;;;;;;5002806;28;20043;-76
2023/09/22 15:15:23;;;;;;;30.08;6.60;;;;;;;;;;5003555;28;20484;-76
2023/09/22 15:18:08;;;;;;;24.13;6.40;;;;;;;;;;5003810;28;20035;-76
2023/09/22 15:21:00;;;;;;;16.15;5.38;;;;;;;;;;4997178;28;20046;-76
2023/09/22 15:23:46;;;;;;;24.30;6.40;;;;;;;;;;4998139;28;20051;-76
2023/09/22 15:26:31;;;;;;;25.90;7.50;;;;;;;;;;4996475;28;20054;-75
2023/09/22 15:29:17;;;;;;;28.15;8.68;;;;;;;;;;4996676;28;20389;-75
2023/09/22 15:32:04;;;;;;;28.08;7.10;;;;;;;;;;4997380;28;20046;-76
2023/09/22 15:34:50;;;;;;;27.35;8.63;;;;;;;;;;5003199;28;20046;-76
2023/09/22 15:37:36;;;;;;;23.33;5.07;;;;;;;;;;5003232;28;20038;-76
2023/09/22 15:40:22;;;;;;;19.55;4.65;;;;;;;;;;5003125;28;20050;-76
2023/09/22 15:43:07;;;;;;;13.18;3.53;;;;;;;;;;5002829;28;20038;-78
2023/09/22 15:45:53;;;;;;;17.70;3.60;;;;;;;;;;4988670;28;20042;-76
2023/09/22 15:48:39;;;;;;;20.10;4.18;;;;;;;;;;5002146;28;20042;-75
2023/09/22 15:51:26;;;;;;;21.55;4.50;;;;;;;;;;4996562;28;20042;-76
2023/09/22 15:54:11;;;;;;;22.20;4.25;;;;;;;;;;4996720;28;20054;-76
2023/09/22 15:56:57;;;;;;;24.38;4.00;;;;;;;;;;4995354;28;20050;-76
2023/09/22 15:59:44;;;;;;;22.88;4.63;;;;;;;;;;4996583;28;20046;-76
2023/09/22 16:02:29;;;;;;;22.30;4.90;;;;;;;;;;4996031;28;20046;-75
2023/09/22 16:05:15;;;;;;;21.17;5.03;;;;;;;;;;4995734;28;20054;-77
2023/09/22 16:08:02;;;;;;;26.08;4.10;;;;;;;;;;4996360;28;20050;-75
2023/09/22 16:10:48;;;;;;;15.85;3.83;;;;;;;;;;4996908;28;20062;-76
2023/09/22 16:13:33;;;;;;;17.52;4.15;;;;;;;;;;4996278;28;20046;-73
2023/09/22 16:16:18;;;;;;;34.05;5.15;;;;;;;;;;4995741;28;20042;-74
2023/09/22 16:19:05;;;;;;;18.33;4.70;;;;;;;;;;4994749;28;20046;-74
2023/09/22 16:21:50;;;;;;;17.50;3.90;;;;;;;;;;4996633;28;20046;-77
2023/09/22 16:24:34;;;;;;;16.42;4.43;;;;;;;;;;5002359;28;20491;-77
2023/09/22 16:27:22;;;;;;;21.23;4.50;;;;;;;;;;5002658;28;20043;-75
2023/09/22 16:30:09;;;;;;;22.15;4.47;;;;;;;;;;4997885;28;20042;-77